Time;durP1;ratioP1;P1;durP2;ratioP2;P2;SDS_P1;SDS_P2;PMS_P1;PMS_P2;Temp;Humidity;BMP_temperature;BMP_pressure;BME280_temperature;BME280_humidity;BME280_pressure;Samples;Min_cycle;Max_cycle;Signal;HPM_P1;HPM_P2
2020/12/26 00:01:10;;;;;;;1.07;1.07;;;;;;;18.08;50.03;101921.59;5094255;28;20306;-60
2020/12/26 00:03:36;;;;;;;0.90;0.90;;;;;;;18.08;49.67;101920.75;5094215;28;20183;-60
2020/12/26 00:06:02;;;;;;;0.97;0.97;;;;;;;18.08;49.57;101918.91;5093787;28;20175;-59
2020/12/26 00:08:28;;;;;;;0.90;0.90;;;;;;;18.12;49.67;101921.34;5094996;28;20207;-59
2020/12/26 00:10:55;;;;;;;1.17;1.07;;;;;;;18.08;49.82;101912.63;5088370;28;20235;-63
2020/12/26 00:13:21;;;;;;;1.20;1.10;;;;;;;18.08;49.81;101921.59;5094627;28;20202;-63
2020/12/26 00:15:47;;;;;;;1.00;1.00;;;;;;;18.02;49.85;101927.56;5094546;28;20179;-63
2020/12/26 00:18:13;;;;;;;1.20;1.10;;;;;;;18.06;49.64;101928.16;5094452;28;20214;-64
2020/12/26 00:20:39;;;;;;;1.10;1.00;;;;;;;18.08;49.81;101928.88;5094647;28;20182;-65
2020/12/26 00:23:05;;;;;;;1.17;0.97;;;;;;;18.08;49.93;101931.59;5097333;28;20197;-65
2020/12/26 00:25:31;;;;;;;1.10;1.00;;;;;;;18.09;49.52;101931.44;5105893;28;20182;-65
2020/12/26 00:27:57;;;;;;;1.10;1.07;;;;;;;18.07;49.84;101929.88;5105284;28;20588;-65
2020/12/26 00:30:23;;;;;;;1.00;1.00;;;;;;;18.12;49.68;101926.75;5103579;28;20254;-65
2020/12/26 00:32:49;;;;;;;1.03;1.03;;;;;;;18.16;50.01;101926.34;5103937;28;20186;-65
2020/12/26 00:35:15;;;;;;;0.90;0.90;;;;;;;18.25;50.18;101930.09;5104469;28;20210;-65
2020/12/26 00:37:41;;;;;;;1.13;1.03;;;;;;;18.36;49.94;101927.28;5104502;28;20207;-65
2020/12/26 00:40:08;;;;;;;1.13;1.00;;;;;;;18.45;50.04;101923.72;5104210;28;20563;-60
2020/12/26 00:42:34;;;;;;;1.20;1.10;;;;;;;18.53;49.47;101923.06;5105061;28;20179;-63
2020/12/26 00:45:00;;;;;;;1.00;1.00;;;;;;;18.61;49.91;101924.06;5102021;28;20279;-63
2020/12/26 00:47:26;;;;;;;1.10;1.00;;;;;;;18.66;49.58;101927.25;5101700;28;20766;-64
2020/12/26 00:49:52;;;;;;;0.90;0.90;;;;;;;18.70;49.54;101917.88;5098653;28;20226;-61
2020/12/26 00:52:18;;;;;;;0.80;0.80;;;;;;;18.75;49.41;101924.72;5093316;28;20183;-60
2020/12/26 00:54:44;;;;;;;1.10;1.00;;;;;;;18.77;49.32;101920.03;5094020;28;20217;-60
2020/12/26 00:57:10;;;;;;;0.80;0.80;;;;;;;18.77;49.23;101922.72;5093801;28;20718;-61
2020/12/26 00:59:36;;;;;;;0.93;0.93;;;;;;;18.78;48.95;101921.72;5093955;28;20179;-60
2020/12/26 01:02:02;;;;;;;1.20;1.10;;;;;;;18.75;49.10;101928.28;5092950;28;20210;-60
2020/12/26 01:04:28;;;;;;;1.13;1.10;;;;;;;18.75;49.24;101922.00;5093964;28;20186;-64
2020/12/26 01:06:55;;;;;;;1.20;1.10;;;;;;;18.75;49.18;101927.44;5093802;28;20186;-65
2020/12/26 01:09:22;;;;;;;1.20;1.10;;;;;;;18.74;48.91;101928.44;5093719;28;20546;-61
2020/12/26 01:11:48;;;;;;;1.30;1.10;;;;;;;18.67;48.91;101931.69;5093825;28;20273;-63
2020/12/26 01:14:14;;;;;;;1.00;1.00;;;;;;;18.67;49.15;101926.25;5093574;28;20218;-60
2020/12/26 01:16:41;;;;;;;1.20;1.10;;;;;;;18.64;49.28;101925.69;5093295;28;20647;-60
2020/12/26 01:19:07;;;;;;;0.90;0.87;;;;;;;18.58;48.87;101929.78;5093446;28;20293;-60
2020/12/26 01:21:33;;;;;;;1.00;1.00;;;;;;;18.52;48.92;101935.75;5093624;28;20186;-64
2020/12/26 01:23:59;;;;;;;1.30;1.20;;;;;;;18.49;49.04;101940.63;5093722;28;20554;-64
2020/12/26 01:26:25;;;;;;;1.10;1.00;;;;;;;18.42;49.23;101940.28;5093466;28;20190;-63
2020/12/26 01:28:51;;;;;;;1.50;1.00;;;;;;;18.37;49.16;101942.53;5092399;28;20226;-63
2020/12/26 01:31:17;;;;;;;1.20;1.10;;;;;;;18.27;49.16;101938.97;5093525;28;20515;-63
2020/12/26 01:33:43;;;;;;;1.53;1.10;;;;;;;18.18;49.63;101934.31;5093261;28;20182;-60
2020/12/26 01:36:13;;;;;;;1.20;1.10;;;;;;;18.13;49.66;101940.16;5093107;28;20630;-63
2020/12/26 01:38:39;;;;;;;1.10;1.10;;;;;;;18.06;49.96;101934.44;5093411;28;20782;-64
2020/12/26 01:41:05;;;;;;;1.10;1.10;;;;;;;18.03;49.79;101937.41;5093274;28;20317;-65
2020/12/26 01:43:31;;;;;;;0.80;0.80;;;;;;;18.01;49.43;101933.97;5092161;28;20209;-65
2020/12/26 01:45:58;;;;;;;1.23;1.13;;;;;;;18.02;49.97;101941.13;5093138;28;20319;-64
2020/12/26 01:48:24;;;;;;;1.27;1.17;;;;;;;18.02;49.93;101938.41;5075259;28;20195;-65
2020/12/26 01:50:51;;;;;;;1.13;1.07;;;;;;;18.05;49.38;101940.84;5075169;28;20799;-65
2020/12/26 01:53:17;;;;;;;1.17;1.10;;;;;;;18.12;49.54;101945.72;5075510;28;20793;-65
2020/12/26 01:55:43;;;;;;;0.90;0.90;;;;;;;18.17;49.45;101941.59;5075066;28;20232;-65
2020/12/26 01:58:13;;;;;;;1.30;1.20;;;;;;;18.28;49.57;101937.97;5092955;28;20206;-64
2020/12/26 02:00:39;;;;;;;1.10;1.10;;;;;;;18.38;49.12;101931.56;5093030;28;20214;-63
2020/12/26 02:03:05;;;;;;;1.57;1.10;;;;;;;18.48;49.35;101934.34;5092899;28;20538;-63
2020/12/26 02:05:32;;;;;;;1.07;1.07;;;;;;;18.58;49.22;101934.34;5091990;28;20187;-63
2020/12/26 02:07:58;;;;;;;0.90;0.90;;;;;;;18.66;49.26;101929.97;5091935;28;20206;-63
2020/12/26 02:10:24;;;;;;;1.10;1.00;;;;;;;18.75;49.36;101938.28;5092846;28;20183;-64
2020/12/26 02:12:50;;;;;;;1.00;1.00;;;;;;;18.80;49.17;101928.72;5091844;28;20289;-65
2020/12/26 02:15:16;;;;;;;1.10;1.00;;;;;;;18.84;49.17;101932.00;5092670;28;20560;-63
2020/12/26 02:17:42;;;;;;;1.10;1.00;;;;;;;18.89;49.11;101930.59;5092319;28;20263;-63
2020/12/26 02:20:08;;;;;;;1.17;1.10;;;;;;;18.91;49.05;101925.88;5092640;28;20179;-64
2020/12/26 02:22:34;;;;;;;0.97;0.97;;;;;;;18.93;49.05;101923.91;5092681;28;20225;-63
2020/12/26 02:25:00;;;;;;;1.30;1.20;;;;;;;18.93;48.69;101925.78;5091765;28;20219;-63
2020/12/26 02:27:26;;;;;;;1.10;1.10;;;;;;;18.93;48.69;101926.63;5092297;28;20223;-63
2020/12/26 02:29:52;;;;;;;1.00;1.00;;;;;;;18.93;48.97;101931.19;5090870;28;20194;-61
2020/12/26 02:32:18;;;;;;;1.17;1.07;;;;;;;18.91;48.54;101930.44;5092293;28;20655;-61
2020/12/26 02:34:45;;;;;;;1.40;1.30;;;;;;;18.88;48.95;101923.44;5090914;28;20236;-60
2020/12/26 02:37:11;;;;;;;1.13;1.10;;;;;;;18.84;48.77;101921.16;5089297;28;20210;-60
2020/12/26 02:39:37;;;;;;;1.30;1.20;;;;;;;18.80;48.71;101915.16;5092470;28;20193;-60
2020/12/26 02:42:03;;;;;;;1.37;1.23;;;;;;;18.76;48.70;101919.16;5092539;28;20240;-59
2020/12/26 02:44:29;;;;;;;1.00;1.00;;;;;;;18.73;48.76;101915.88;5092559;28;20762;-63
2020/12/26 02:46:55;;;;;;;1.30;1.20;;;;;;;18.67;48.93;101914.56;5092428;28;20182;-63
2020/12/26 02:49:21;;;;;;;1.00;1.00;;;;;;;18.60;48.75;101914.22;5092338;28;20213;-60
2020/12/26 02:51:47;;;;;;;1.33;1.23;;;;;;;18.52;49.12;101916.78;5092279;28;20222;-63
2020/12/26 02:54:13;;;;;;;1.27;1.20;;;;;;;18.45;49.28;101912.88;5092453;28;20298;-64
2020/12/26 02:56:40;;;;;;;1.30;1.20;;;;;;;18.38;49.31;101919.88;5090896;28;20336;-61
2020/12/26 02:59:08;;;;;;;1.20;1.10;;;;;;;18.27;49.15;101918.13;5092191;28;20682;-60
2020/12/26 03:01:41;;;;;;;1.00;1.00;;;;;;;18.24;49.13;101912.13;5091390;28;20187;-59
2020/12/26 03:04:07;;;;;;;1.27;1.27;;;;;;;18.17;49.37;101910.94;5092516;28;20187;-60
2020/12/26 03:06:33;;;;;;;1.10;1.10;;;;;;;18.14;49.56;101905.78;5092267;28;20179;-60
2020/12/26 03:08:59;;;;;;;1.60;1.50;;;;;;;18.10;49.53;101911.50;5092077;28;20305;-63
2020/12/26 03:11:25;;;;;;;1.20;1.20;;;;;;;18.08;49.52;101902.63;5092189;28;20187;-64
2020/12/26 03:13:51;;;;;;;2.10;1.30;;;;;;;18.05;49.66;101908.34;5092091;28;20203;-65
2020/12/26 03:16:18;;;;;;;1.30;1.20;;;;;;;18.07;49.54;101908.19;5092296;28;20245;-60
2020/12/26 03:18:44;;;;;;;1.30;1.20;;;;;;;18.10;49.22;101900.66;5092285;28;20289;-60
2020/12/26 03:21:10;;;;;;;1.40;1.30;;;;;;;18.13;49.58;101895.94;5092240;28;20187;-60
2020/12/26 03:23:36;;;;;;;1.20;1.10;;;;;;;18.16;49.36;101892.97;5091211;28;20500;-63
2020/12/26 03:26:03;;;;;;;1.20;1.10;;;;;;;18.18;49.21;101890.97;5091752;28;20278;-63
2020/12/26 03:28:29;;;;;;;1.20;1.10;;;;;;;18.23;49.28;101900.44;5090916;28;20203;-63
2020/12/26 03:30:55;;;;;;;1.40;1.17;;;;;;;18.33;49.37;101895.88;5092250;28;20187;-63
2020/12/26 03:33:21;;;;;;;1.17;1.07;;;;;;;18.42;49.53;101891.47;5091247;28;20543;-60
2020/12/26 03:35:47;;;;;;;1.20;1.10;;;;;;;18.51;49.17;101887.09;5091912;28;20211;-64
2020/12/26 03:38:13;;;;;;;1.20;1.10;;;;;;;18.60;48.97;101891.69;5091886;28;20206;-64
2020/12/26 03:40:39;;;;;;;1.13;1.13;;;;;;;18.66;49.28;101885.72;5093823;28;20202;-64
2020/12/26 03:43:05;;;;;;;1.07;1.07;;;;;;;18.72;49.29;101889.75;5095402;28;20279;-60
2020/12/26 03:45:31;;;;;;;1.27;1.17;;;;;;;18.75;48.82;101875.91;5094574;28;20182;-62
2020/12/26 03:47:57;;;;;;;1.10;1.10;;;;;;;18.77;48.71;101882.03;5095444;28;20297;-63
2020/12/26 03:50:23;;;;;;;1.10;1.10;;;;;;;18.79;48.74;101880.03;5095261;28;20634;-64
2020/12/26 03:52:49;;;;;;;1.23;1.23;;;;;;;18.78;48.96;101884.63;5095250;28;20278;-63
2020/12/26 03:55:15;;;;;;;1.10;1.10;;;;;;;18.79;48.87;101882.75;5095229;28;20211;-64
2020/12/26 03:57:41;;;;;;;1.33;1.23;;;;;;;18.76;48.89;101883.03;5094830;28;20284;-64
2020/12/26 04:00:07;;;;;;;1.10;1.10;;;;;;;18.74;48.42;101883.19;5077467;28;20615;-65
2020/12/26 04:02:34;;;;;;;1.10;1.10;;;;;;;18.70;48.85;101881.75;5095271;28;20186;-64
2020/12/26 04:05:00;;;;;;;1.30;1.10;;;;;;;18.66;48.47;101874.88;5095188;28;20179;-61
2020/12/26 04:07:26;;;;;;;1.30;1.20;;;;;;;18.62;48.84;101876.13;5095025;28;20305;-61
2020/12/26 04:09:52;;;;;;;1.33;1.23;;;;;;;18.56;48.69;101866.69;5095014;28;20202;-64
2020/12/26 04:12:18;;;;;;;1.10;1.10;;;;;;;18.52;48.64;101856.28;5094928;28;20195;-63
2020/12/26 04:14:44;;;;;;;1.10;1.10;;;;;;;18.45;49.15;101850.53;5095095;28;20210;-61
2020/12/26 04:17:10;;;;;;;1.30;1.20;;;;;;;18.40;48.88;101852.81;5094686;28;20191;-63
2020/12/26 04:19:36;;;;;;;1.10;1.10;;;;;;;18.33;49.11;101854.38;5095178;28;20274;-63
2020/12/26 04:22:02;;;;;;;1.40;1.30;;;;;;;18.24;48.85;101847.09;5094784;28;20191;-63
2020/12/26 04:24:28;;;;;;;1.20;1.10;;;;;;;18.18;49.14;101845.75;5094717;28;20226;-60
2020/12/26 04:26:54;;;;;;;1.77;1.20;;;;;;;18.12;49.41;101843.59;5094401;28;20190;-65
2020/12/26 04:29:21;;;;;;;1.33;1.23;;;;;;;18.08;49.37;101844.88;5094423;28;20203;-65
2020/12/26 04:31:48;;;;;;;1.33;1.23;;;;;;;18.02;49.26;101840.88;5094848;28;20199;-65
2020/12/26 04:34:15;;;;;;;1.40;1.30;;;;;;;17.98;49.13;101842.16;5093591;28;20235;-65
2020/12/26 04:36:41;;;;;;;1.20;1.20;;;;;;;17.94;49.58;101835.25;5094618;28;20265;-64
2020/12/26 04:39:07;;;;;;;1.47;1.37;;;;;;;17.97;49.21;101826.00;5094525;28;20203;-64
2020/12/26 04:41:33;;;;;;;1.33;1.23;;;;;;;18.00;49.62;101823.06;5094501;28;20183;-63
2020/12/26 04:44:00;;;;;;;1.40;1.30;;;;;;;18.03;49.47;101829.06;5094532;28;20190;-63
2020/12/26 04:46:26;;;;;;;1.40;1.20;;;;;;;18.06;49.17;101823.34;5094888;28;20187;-61
2020/12/26 04:49:07;;;;;;;1.10;1.10;;;;;;;18.16;49.28;101825.22;5093645;28;20226;-64
2020/12/26 04:51:37;;;;;;;1.40;1.30;;;;;;;18.27;49.16;101819.72;5093453;28;20237;-65
2020/12/26 04:54:23;;;;;;;1.40;1.30;;;;;;;18.37;49.00;101809.72;5093948;28;20214;-65
2020/12/26 04:56:50;;;;;;;1.30;1.20;;;;;;;18.48;49.02;101804.19;5093187;28;20198;-65
2020/12/26 04:59:16;;;;;;;1.40;1.30;;;;;;;18.57;48.99;101800.63;5092942;28;20639;-64
2020/12/26 05:01:42;;;;;;;1.30;1.20;;;;;;;18.65;48.99;101798.09;5093191;28;20187;-64
2020/12/26 05:04:09;;;;;;;1.10;1.10;;;;;;;18.72;48.98;101792.13;5094005;28;20190;-64
2020/12/26 05:06:56;;;;;;;1.10;1.10;;;;;;;18.77;48.68;101795.25;5093863;28;20186;-61
2020/12/26 05:09:22;;;;;;;1.10;1.10;;;;;;;18.82;48.48;101790.25;5093739;28;20281;-61
2020/12/26 05:11:55;;;;;;;1.40;1.30;;;;;;;18.85;48.58;101789.97;5093788;28;20195;-61
2020/12/26 05:14:22;;;;;;;1.40;1.40;;;;;;;18.87;48.46;101787.94;5093816;28;20217;-61
2020/12/26 05:16:48;;;;;;;1.10;1.10;;;;;;;18.87;48.59;101785.25;5093731;28;20202;-61
2020/12/26 05:19:14;;;;;;;1.40;1.30;;;;;;;18.87;48.62;101787.94;5093731;28;20289;-65
2020/12/26 05:21:40;;;;;;;1.27;1.17;;;;;;;18.85;48.61;101781.81;5093733;28;20187;-65
2020/12/26 05:24:11;;;;;;;1.30;1.20;;;;;;;18.83;48.35;101783.81;5093646;28;20182;-65
2020/12/26 05:26:44;;;;;;;1.20;1.20;;;;;;;18.79;48.43;101774.25;5093458;28;20683;-65
2020/12/26 05:29:11;;;;;;;1.63;1.30;;;;;;;18.75;48.31;101770.97;5093388;28;20230;-64
2020/12/26 05:31:57;;;;;;;1.40;1.30;;;;;;;18.70;48.69;101774.13;5093203;28;20250;-64
2020/12/26 05:34:29;;;;;;;1.27;1.27;;;;;;;18.67;48.43;101790.66;5093318;28;20699;-65
2020/12/26 05:36:57;;;;;;;1.37;1.33;;;;;;;18.61;48.48;101785.78;5093359;28;20654;-61
2020/12/26 05:39:26;;;;;;;1.40;1.30;;;;;;;18.58;48.85;101774.38;5092187;28;20233;-61
2020/12/26 05:41:53;;;;;;;1.20;1.10;;;;;;;18.52;48.46;101780.38;5092130;28;20191;-64
2020/12/26 05:44:22;;;;;;;1.13;1.13;;;;;;;18.41;48.45;101775.91;5075601;28;20179;-65
2020/12/26 05:46:59;;;;;;;1.47;1.37;;;;;;;18.33;48.90;101771.22;5075841;28;20183;-65
2020/12/26 05:49:29;;;;;;;1.40;1.30;;;;;;;18.30;49.00;101773.34;5093066;28;20203;-64
2020/12/26 05:52:11;;;;;;;1.47;1.37;;;;;;;18.19;49.19;101762.63;5092140;28;20234;-64
2020/12/26 05:54:48;;;;;;;1.50;1.40;;;;;;;18.12;49.30;101761.47;5093333;28;20218;-64
2020/12/26 05:57:14;;;;;;;1.43;1.33;;;;;;;18.06;49.25;101752.91;5093060;28;20277;-64
2020/12/26 05:59:44;;;;;;;1.20;1.20;;;;;;;17.99;49.05;101770.72;5093106;28;20187;-64
2020/12/26 06:02:20;;;;;;;1.30;1.20;;;;;;;18.00;49.37;101768.88;5093088;28;20190;-64
2020/12/26 06:04:50;;;;;;;1.30;1.30;;;;;;;17.98;49.08;101771.72;5092925;28;20631;-61
2020/12/26 06:07:17;;;;;;;1.30;1.20;;;;;;;18.00;48.84;101767.03;5075263;28;20644;-65
2020/12/26 06:09:43;;;;;;;1.60;1.23;;;;;;;18.05;49.27;101761.19;5075448;28;20187;-65
2020/12/26 06:12:10;;;;;;;1.47;1.37;;;;;;;18.06;48.83;101758.31;5091966;28;20182;-61
2020/12/26 06:14:36;;;;;;;1.30;1.23;;;;;;;18.08;49.33;101755.47;5075072;28;20218;-61
2020/12/26 06:17:02;;;;;;;1.40;1.30;;;;;;;18.11;49.18;101755.19;5075017;28;20332;-61
2020/12/26 06:19:28;;;;;;;1.40;1.30;;;;;;;18.19;49.04;101768.03;5091656;28;20209;-61
2020/12/26 06:21:54;;;;;;;1.20;1.20;;;;;;;18.29;49.34;101767.06;5091706;28;20198;-61
2020/12/26 06:24:20;;;;;;;1.47;1.37;;;;;;;18.41;49.32;101770.50;5091751;28;20262;-61
2020/12/26 06:26:47;;;;;;;1.10;1.10;;;;;;;18.49;48.77;101770.66;5074746;28;20196;-61
2020/12/26 06:29:16;;;;;;;1.30;1.20;;;;;;;18.58;49.02;101771.66;5091575;28;20260;-61
2020/12/26 06:31:46;;;;;;;1.33;1.23;;;;;;;18.63;49.05;101772.13;5092522;28;20697;-61
2020/12/26 06:34:17;;;;;;;1.10;1.10;;;;;;;18.68;48.79;101777.97;5071429;28;20219;-61
2020/12/26 06:36:43;;;;;;;1.50;1.40;;;;;;;18.72;48.89;101771.28;5072564;28;20195;-61
2020/12/26 06:39:29;;;;;;;1.10;1.10;;;;;;;18.75;48.85;101780.97;5071367;28;20226;-61
2020/12/26 06:42:12;;;;;;;1.43;1.33;;;;;;;18.76;48.60;101771.84;5072451;28;20191;-61
2020/12/26 06:44:38;;;;;;;1.50;1.40;;;;;;;18.77;48.41;101778.97;5072482;28;20187;-64
2020/12/26 06:47:04;;;;;;;1.30;1.20;;;;;;;18.76;48.57;101771.84;5081579;28;20195;-65
2020/12/26 06:49:30;;;;;;;1.20;1.20;;;;;;;18.76;48.65;101771.84;5091214;28;20847;-61
2020/12/26 06:51:56;;;;;;;1.17;1.17;;;;;;;18.73;48.54;101774.84;5092527;28;20262;-64
2020/12/26 06:54:38;;;;;;;1.23;1.23;;;;;;;18.70;48.20;101771.41;5092255;28;20206;-61
2020/12/26 06:57:04;;;;;;;1.30;1.20;;;;;;;18.68;48.46;101776.09;5091085;28;20190;-61
2020/12/26 06:59:35;;;;;;;1.13;1.13;;;;;;;18.64;48.47;101785.53;5092195;28;20206;-61
2020/12/26 07:02:08;;;;;;;1.10;1.10;;;;;;;18.58;48.21;101788.78;5092328;28;20187;-61
2020/12/26 07:04:38;;;;;;;1.50;1.30;;;;;;;18.53;48.78;101791.06;5092063;28;20601;-60
2020/12/26 07:07:04;;;;;;;1.60;1.50;;;;;;;18.48;48.71;101790.66;5092276;28;20734;-61
2020/12/26 07:09:50;;;;;;;1.20;1.20;;;;;;;18.40;48.56;101795.88;5092012;28;20213;-61
2020/12/26 07:12:16;;;;;;;1.40;1.30;;;;;;;18.33;48.53;101808.31;5091488;28;20194;-61
2020/12/26 07:14:49;;;;;;;1.50;1.40;;;;;;;18.28;48.90;101806.00;5092803;28;20677;-61
2020/12/26 07:17:15;;;;;;;1.50;1.40;;;;;;;18.18;48.76;101806.97;5095187;28;20236;-61
2020/12/26 07:19:45;;;;;;;1.40;1.30;;;;;;;18.13;48.63;101806.53;5096002;28;20270;-60
2020/12/26 07:22:16;;;;;;;1.50;1.40;;;;;;;18.02;49.19;101813.78;5096006;28;20273;-61
2020/12/26 07:24:44;;;;;;;1.10;1.10;;;;;;;17.97;49.41;101802.47;5095996;28;20191;-60
2020/12/26 07:27:18;;;;;;;1.10;1.10;;;;;;;18.04;48.85;101798.25;5095590;28;20195;-60
2020/12/26 07:29:53;;;;;;;1.27;1.20;;;;;;;18.05;49.19;101789.13;5095849;28;20633;-60
2020/12/26 07:32:42;;;;;;;1.40;1.30;;;;;;;18.08;48.95;101794.25;5095730;28;20190;-60
2020/12/26 07:35:23;;;;;;;1.03;1.03;;;;;;;18.12;48.98;101793.97;5095588;28;20568;-64
2020/12/26 07:38:10;;;;;;;1.20;1.10;;;;;;;18.20;48.88;101791.44;5095473;28;20272;-63
2020/12/26 07:40:43;;;;;;;1.17;1.07;;;;;;;18.32;48.96;101790.31;5094613;28;20698;-63
2020/12/26 07:43:10;;;;;;;1.10;1.10;;;;;;;18.40;49.14;101795.88;5095814;28;20232;-63
2020/12/26 07:45:38;;;;;;;1.13;1.03;;;;;;;18.50;49.03;101804.91;5095709;28;20191;-63
2020/12/26 07:48:04;;;;;;;1.10;1.10;;;;;;;18.58;48.67;101804.19;5095414;28;20203;-64
2020/12/26 07:50:32;;;;;;;1.40;1.30;;;;;;;18.65;48.93;101808.94;5094405;28;20198;-64
2020/12/26 07:53:00;;;;;;;1.10;1.10;;;;;;;18.70;48.83;101812.09;5095240;28;20262;-64
2020/12/26 07:55:27;;;;;;;1.10;1.10;;;;;;;18.75;48.52;101813.53;5095117;28;20218;-65
2020/12/26 07:58:06;;;;;;;1.00;1.00;;;;;;;18.78;48.46;101808.66;5094292;28;20243;-65
2020/12/26 08:00:36;;;;;;;1.03;1.03;;;;;;;18.80;48.43;101812.09;5095391;28;20179;-63
2020/12/26 08:03:04;;;;;;;1.13;1.13;;;;;;;18.82;48.63;101814.66;5095373;28;20195;-63
2020/12/26 08:05:32;;;;;;;1.10;1.10;;;;;;;18.82;48.49;101820.09;5095082;28;20668;-63
2020/12/26 08:07:59;;;;;;;1.00;1.00;;;;;;;18.82;48.11;101820.09;5095017;28;20210;-64
2020/12/26 08:10:25;;;;;;;1.10;1.00;;;;;;;18.80;48.47;101822.09;5095071;28;20221;-63
2020/12/26 08:12:58;;;;;;;1.10;1.10;;;;;;;18.79;48.45;101821.22;5095204;28;20229;-63
2020/12/26 08:15:27;;;;;;;0.90;0.90;;;;;;;18.77;48.20;101825.09;5093991;28;20754;-63
2020/12/26 08:17:55;;;;;;;1.07;1.07;;;;;;;18.73;48.19;101815.53;5094623;28;20218;-63
2020/12/26 08:20:22;;;;;;;1.10;1.10;;;;;;;18.72;48.46;101819.25;5093943;28;20644;-63
2020/12/26 08:22:48;;;;;;;1.10;1.10;;;;;;;18.66;48.21;101813.34;5094589;28;20619;-63
2020/12/26 08:25:14;;;;;;;1.00;1.00;;;;;;;18.62;48.54;101820.06;5094919;28;20534;-63
2020/12/26 08:27:41;;;;;;;1.20;1.10;;;;;;;18.57;48.16;101816.03;5072244;28;20225;-63
2020/12/26 08:30:09;;;;;;;1.30;1.20;;;;;;;18.50;48.31;101821.19;5074445;28;20607;-63
2020/12/26 08:33:01;;;;;;;1.20;1.10;;;;;;;18.44;48.72;101826.28;5073559;28;20226;-63
2020/12/26 08:35:27;;;;;;;1.03;0.97;;;;;;;18.37;48.29;101831.41;5073829;28;20238;-60
2020/12/26 08:38:01;;;;;;;1.17;1.07;;;;;;;18.27;48.39;101820.56;5057567;28;20208;-60
2020/12/26 08:40:27;;;;;;;0.90;0.90;;;;;;;18.22;48.79;101819.28;5057812;28;20187;-60
2020/12/26 08:42:53;;;;;;;0.90;0.90;;;;;;;18.14;48.66;101824.50;5056771;28;20184;-60
2020/12/26 08:45:29;;;;;;;1.00;1.00;;;;;;;18.08;49.04;101815.94;5092954;28;20390;-60
2020/12/26 08:47:58;;;;;;;1.10;1.10;;;;;;;18.13;48.93;101811.94;5094351;28;20260;-60
2020/12/26 08:50:28;;;;;;;1.20;1.10;;;;;;;18.16;48.96;101814.38;5093156;28;20535;-60
2020/12/26 08:53:10;;;;;;;1.20;1.10;;;;;;;18.19;48.84;101811.38;5094254;28;20179;-64
2020/12/26 08:55:46;;;;;;;1.23;1.13;;;;;;;18.21;48.95;101806.69;5093732;28;20202;-65
2020/12/26 08:58:28;;;;;;;1.00;1.00;;;;;;;18.27;49.16;101800.72;5094057;28;20211;-64
2020/12/26 09:00:56;;;;;;;1.00;1.00;;;;;;;18.38;48.91;101797.88;5094248;28;20194;-61
2020/12/26 09:03:23;;;;;;;1.20;1.10;;;;;;;18.47;48.87;101793.50;5094067;28;20222;-61
2020/12/26 09:05:49;;;;;;;1.10;1.10;;;;;;;18.55;48.95;101789.06;5092890;28;20189;-61
2020/12/26 09:08:15;;;;;;;0.90;0.90;;;;;;;18.63;48.64;101793.81;5093732;28;20654;-65
2020/12/26 09:10:42;;;;;;;0.90;0.90;;;;;;;18.70;48.44;101779.56;5091602;28;20277;-64
2020/12/26 09:13:13;;;;;;;1.00;1.00;;;;;;;18.77;48.41;101776.25;5090016;28;20197;-64
2020/12/26 09:15:55;;;;;;;1.17;1.13;;;;;;;18.82;48.47;101782.97;5085650;28;20548;-64
2020/12/26 09:18:22;;;;;;;0.97;0.97;;;;;;;18.88;48.33;101778.81;5093508;28;20213;-60
2020/12/26 09:20:50;;;;;;;0.80;0.80;;;;;;;18.92;48.50;101783.81;5094013;28;20526;-60
2020/12/26 09:23:16;;;;;;;0.97;0.97;;;;;;;18.96;48.46;101784.41;5093670;28;20269;-60
2020/12/26 09:25:42;;;;;;;0.80;0.80;;;;;;;18.99;48.25;101781.38;5093432;28;20260;-64
2020/12/26 09:28:08;;;;;;;0.90;0.90;;;;;;;19.03;48.28;101777.38;5092536;28;20211;-65
2020/12/26 09:30:34;;;;;;;1.03;1.00;;;;;;;19.07;48.17;101780.66;5093517;28;20532;-64
2020/12/26 09:33:00;;;;;;;0.87;0.87;;;;;;;19.08;48.30;101775.06;5093331;28;20222;-64
2020/12/26 09:35:26;;;;;;;1.00;1.00;;;;;;;19.11;48.05;101776.66;5093546;28;20250;-63
2020/12/26 09:37:53;;;;;;;0.90;0.90;;;;;;;19.12;48.10;101773.78;5092799;28;20211;-60
2020/12/26 09:40:24;;;;;;;1.00;1.00;;;;;;;19.15;48.21;101773.47;5093385;28;20521;-60
2020/12/26 09:42:52;;;;;;;1.00;1.00;;;;;;;19.17;48.21;101778.78;5093180;28;20195;-63
2020/12/26 09:45:18;;;;;;;0.70;0.70;;;;;;;19.19;47.90;101777.66;5093280;28;20187;-63
2020/12/26 09:47:44;;;;;;;1.07;0.97;;;;;;;19.21;47.88;101780.22;5093126;28;20642;-64
2020/12/26 09:50:10;;;;;;;1.27;1.17;;;;;;;19.21;48.03;101772.06;5093383;28;20191;-60
2020/12/26 09:52:38;;;;;;;1.00;1.00;;;;;;;19.22;48.22;101774.63;5093397;28;20615;-59
2020/12/26 09:55:06;;;;;;;0.90;0.90;;;;;;;19.23;47.77;101786.34;5093131;28;20663;-60
2020/12/26 09:57:32;;;;;;;1.00;1.00;;;;;;;19.21;47.86;101772.94;5091971;28;20211;-64
2020/12/26 09:59:58;;;;;;;0.90;0.90;;;;;;;19.23;47.93;101775.50;5093054;28;20186;-64
2020/12/26 10:02:25;;;;;;;0.90;0.90;;;;;;;19.24;48.03;101771.78;5092725;28;20630;-63
2020/12/26 10:04:51;;;;;;;1.07;1.00;;;;;;;19.23;47.89;101762.78;5092259;28;20187;-63
2020/12/26 10:07:20;;;;;;;0.90;0.90;;;;;;;19.22;47.82;101763.78;5092706;28;20684;-63
2020/12/26 10:09:46;;;;;;;0.90;0.90;;;;;;;19.23;48.14;101759.19;5075240;28;20255;-61
2020/12/26 10:12:12;;;;;;;0.90;0.90;;;;;;;19.23;47.83;101760.06;5092779;28;20668;-64
2020/12/26 10:14:38;;;;;;;1.10;1.00;;;;;;;19.23;47.82;101760.06;5091742;28;20203;-64
2020/12/26 10:17:05;;;;;;;0.97;0.97;;;;;;;19.25;48.07;101749.91;5092845;28;20183;-65
2020/12/26 10:19:31;;;;;;;1.00;1.00;;;;;;;19.26;47.71;101743.47;5092722;28;20564;-65
2020/12/26 10:21:57;;;;;;;0.93;0.93;;;;;;;19.26;47.97;101727.19;5092765;28;20193;-64
2020/12/26 10:24:23;;;;;;;1.00;0.90;;;;;;;19.27;48.08;101723.47;5092668;28;20205;-60
2020/12/26 10:26:49;;;;;;;0.73;0.73;;;;;;;19.28;48.08;101718.91;5092217;28;20206;-61
2020/12/26 10:29:15;;;;;;;0.80;0.80;;;;;;;19.28;47.92;101714.31;5092457;28;20241;-61
2020/12/26 10:31:41;;;;;;;0.90;0.90;;;;;;;19.29;47.74;101707.03;5092605;28;20195;-60
2020/12/26 10:34:07;;;;;;;1.00;1.00;;;;;;;19.30;47.70;101706.88;5092565;28;20214;-61
2020/12/26 10:36:33;;;;;;;0.90;0.90;;;;;;;19.30;47.70;101706.88;5092631;28;20266;-60
2020/12/26 10:38:59;;;;;;;0.87;0.87;;;;;;;19.29;47.80;101699.75;5088786;28;20276;-60
2020/12/26 10:41:25;;;;;;;0.90;0.90;;;;;;;19.32;47.85;101702.16;5088442;28;20204;-66
2020/12/26 10:43:51;;;;;;;1.37;0.87;;;;;;;19.37;47.69;101695.41;5091963;28;20191;-60
2020/12/26 10:46:17;;;;;;;0.90;0.90;;;;;;;19.41;47.85;101691.44;5092096;28;20194;-60
2020/12/26 10:48:43;;;;;;;1.00;1.00;;;;;;;19.45;47.81;101676.53;5092257;28;20685;-60
2020/12/26 10:51:12;;;;;;;0.90;0.90;;;;;;;19.49;47.94;101678.81;5095101;28;20199;-60
2020/12/26 10:53:39;;;;;;;0.97;0.97;;;;;;;19.55;47.81;101671.94;5096575;28;20187;-60
2020/12/26 10:56:06;;;;;;;0.80;0.80;;;;;;;19.62;47.97;101664.88;5096258;28;20203;-60
2020/12/26 10:58:32;;;;;;;1.00;1.00;;;;;;;19.66;47.88;101658.16;5096271;28;20245;-60
2020/12/26 11:00:58;;;;;;;1.20;1.10;;;;;;;19.74;47.82;101663.69;5078489;28;20588;-60
2020/12/26 11:03:25;;;;;;;2.27;1.10;;;;;;;19.81;47.98;101662.06;5096391;28;20175;-60
2020/12/26 11:05:51;;;;;;;1.17;1.07;;;;;;;19.87;48.03;101656.03;5095480;28;20182;-60
2020/12/26 11:08:18;;;;;;;1.37;1.27;;;;;;;19.92;47.64;101652.84;5096295;28;20584;-60
2020/12/26 11:10:45;;;;;;;1.80;1.40;;;;;;;19.97;47.93;101650.50;5096343;28;20175;-60
2020/12/26 11:13:11;;;;;;;1.20;1.20;;;;;;;20.02;47.76;101641.88;5096244;28;20531;-60
2020/12/26 11:15:37;;;;;;;1.50;1.40;;;;;;;20.08;47.61;101636.69;5095952;28;20238;-60
2020/12/26 11:18:03;;;;;;;1.43;1.30;;;;;;;20.11;47.81;101628.25;5096011;28;20198;-60
2020/12/26 11:20:30;;;;;;;1.80;1.70;;;;;;;20.18;47.68;101632.03;5095005;28;20643;-60
2020/12/26 11:22:56;;;;;;;1.43;1.33;;;;;;;20.23;47.82;101618.81;5095201;28;20178;-60
2020/12/26 11:25:22;;;;;;;1.50;1.40;;;;;;;20.28;47.64;101615.63;5095961;28;20197;-60
2020/12/26 11:27:48;;;;;;;1.67;1.57;;;;;;;20.34;47.66;101603.25;5095529;28;20216;-60